sensor_id;sensor_type;location;lat;lon;timestamp;pressure;altitude;pressure_sealevel;temperature;humidity
9139;BME280;4604;48.616;9.548;2023-02-02T00:01:12;97486.84;;;4.65;86.12
9139;BME280;4604;48.616;9.548;2023-02-02T00:03:39;97505.16;;;4.65;86.17
9139;BME280;4604;48.616;9.548;2023-02-02T00:06:06;97489.41;;;4.67;85.31
9139;BME280;4604;48.616;9.548;2023-02-02T00:08:32;97485.84;;;4.68;86.17
9139;BME280;4604;48.616;9.548;2023-02-02T00:11:00;97496.59;;;4.78;84.61
9139;BME280;4604;48.616;9.548;2023-02-02T00:13:27;97494.09;;;4.76;85.05
9139;BME280;4604;48.616;9.548;2023-02-02T00:15:55;97493.78;;;4.66;85.52
9139;BME280;4604;48.616;9.548;2023-02-02T00:18:22;97481.28;;;4.71;85.57
9139;BME280;4604;48.616;9.548;2023-02-02T00:20:48;97480.25;;;4.74;84.97
9139;BME280;4604;48.616;9.548;2023-02-02T00:23:15;97474.66;;;4.66;84.97
9139;BME280;4604;48.616;9.548;2023-02-02T00:25:42;97485.50;;;4.74;85.23
9139;BME280;4604;48.616;9.548;2023-02-02T00:28:08;97489.31;;;4.68;85.76
9139;BME280;4604;48.616;9.548;2023-02-02T00:30:35;97494.81;;;4.64;85.48
9139;BME280;4604;48.616;9.548;2023-02-02T00:33:03;97484.25;;;4.65;85.21
9139;BME280;4604;48.616;9.548;2023-02-02T00:35:30;97514.19;;;4.76;85.81
9139;BME280;4604;48.616;9.548;2023-02-02T00:37:57;97473.25;;;4.75;85.15
9139;BME280;4604;48.616;9.548;2023-02-02T00:40:24;97467.75;;;4.79;85.45
9139;BME280;4604;48.616;9.548;2023-02-02T00:42:50;97481.94;;;4.75;85.35
9139;BME280;4604;48.616;9.548;2023-02-02T00:45:17;97490.16;;;4.69;86.74
9139;BME280;4604;48.616;9.548;2023-02-02T00:47:44;97477.72;;;4.72;87.09
9139;BME280;4604;48.616;9.548;2023-02-02T00:50:15;97471.41;;;4.77;87.02
9139;BME280;4604;48.616;9.548;2023-02-02T00:52:42;97474.47;;;4.69;87.99
9139;BME280;4604;48.616;9.548;2023-02-02T00:55:10;97476.84;;;4.58;89.14
9139;BME280;4604;48.616;9.548;2023-02-02T00:57:36;97473.22;;;4.60;88.94
9139;BME280;4604;48.616;9.548;2023-02-02T01:00:05;97489.16;;;4.56;89.50
9139;BME280;4604;48.616;9.548;2023-02-02T01:02:33;97513.53;;;4.56;89.76
9139;BME280;4604;48.616;9.548;2023-02-02T01:04:59;97527.97;;;4.63;89.46
9139;BME280;4604;48.616;9.548;2023-02-02T01:07:28;97512.59;;;4.57;89.22
9139;BME280;4604;48.616;9.548;2023-02-02T01:09:54;97504.19;;;4.52;89.91
9139;BME280;4604;48.616;9.548;2023-02-02T01:12:21;97524.25;;;4.52;89.83
9139;BME280;4604;48.616;9.548;2023-02-02T01:14:48;97510.69;;;4.45;90.19
9139;BME280;4604;48.616;9.548;2023-02-02T01:17:15;97502.47;;;4.51;89.40
9139;BME280;4604;48.616;9.548;2023-02-02T01:19:42;97503.44;;;4.50;90.38
9139;BME280;4604;48.616;9.548;2023-02-02T01:22:08;97500.19;;;4.61;89.07
9139;BME280;4604;48.616;9.548;2023-02-02T01:24:36;97506.44;;;4.58;89.87
9139;BME280;4604;48.616;9.548;2023-02-02T01:27:03;97492.53;;;4.58;89.88
9139;BME280;4604;48.616;9.548;2023-02-02T01:29:30;97513.69;;;4.53;89.46
9139;BME280;4604;48.616;9.548;2023-02-02T01:31:56;97533.50;;;4.57;89.82
9139;BME280;4604;48.616;9.548;2023-02-02T01:34:23;97519.09;;;4.50;90.39
9139;BME280;4604;48.616;9.548;2023-02-02T01:36:50;97524.16;;;4.53;90.26
9139;BME280;4604;48.616;9.548;2023-02-02T01:39:16;97515.09;;;4.44;90.45
9139;BME280;4604;48.616;9.548;2023-02-02T01:41:44;97500.81;;;4.50;90.79
9139;BME280;4604;48.616;9.548;2023-02-02T01:47:15;97526.94;;;4.50;91.80
9139;BME280;4604;48.616;9.548;2023-02-02T01:49:42;97547.94;;;4.48;92.76
9139;BME280;4604;48.616;9.548;2023-02-02T01:52:10;97502.66;;;4.48;93.98
9139;BME280;4604;48.616;9.548;2023-02-02T01:54:40;97521.22;;;4.43;95.69
9139;BME280;4604;48.616;9.548;2023-02-02T01:57:12;97515.59;;;4.35;97.16
9139;BME280;4604;48.616;9.548;2023-02-02T01:59:41;97519.81;;;4.38;97.77
9139;BME280;4604;48.616;9.548;2023-02-02T02:02:09;97529.09;;;4.27;98.67
9139;BME280;4604;48.616;9.548;2023-02-02T02:04:36;97508.69;;;4.34;98.97
9139;BME280;4604;48.616;9.548;2023-02-02T02:07:04;97498.31;;;4.33;97.43
9139;BME280;4604;48.616;9.548;2023-02-02T02:09:32;97513.06;;;4.34;99.03
9139;BME280;4604;48.616;9.548;2023-02-02T02:11:59;97509.38;;;4.22;98.71
9139;BME280;4604;48.616;9.548;2023-02-02T02:14:27;97509.19;;;4.25;98.99
9139;BME280;4604;48.616;9.548;2023-02-02T02:17:23;97505.22;;;4.34;97.65
9139;BME280;4604;48.616;9.548;2023-02-02T02:23:36;97497.88;;;4.40;97.37
9139;BME280;4604;48.616;9.548;2023-02-02T02:26:38;97487.50;;;4.39;98.37
9139;BME280;4604;48.616;9.548;2023-02-02T02:29:35;97501.75;;;4.33;98.04
9139;BME280;4604;48.616;9.548;2023-02-02T02:32:21;97501.44;;;4.39;97.59
9139;BME280;4604;48.616;9.548;2023-02-02T02:34:54;97486.66;;;4.38;97.20
9139;BME280;4604;48.616;9.548;2023-02-02T02:37:36;97489.72;;;4.46;97.56
9139;BME280;4604;48.616;9.548;2023-02-02T02:40:09;97484.75;;;4.42;96.97
9139;BME280;4604;48.616;9.548;2023-02-02T02:42:38;97507.69;;;4.37;98.49
9139;BME280;4604;48.616;9.548;2023-02-02T02:45:09;97497.47;;;4.32;99.13
9139;BME280;4604;48.616;9.548;2023-02-02T02:47:38;97501.44;;;4.39;99.68
9139;BME280;4604;48.616;9.548;2023-02-02T02:50:06;97501.09;;;4.29;100.00
9139;BME280;4604;48.616;9.548;2023-02-02T02:52:33;97492.25;;;4.32;100.00
9139;BME280;4604;48.616;9.548;2023-02-02T02:55:02;97485.06;;;4.36;99.47
9139;BME280;4604;48.616;9.548;2023-02-02T02:57:45;97491.69;;;4.27;98.94
9139;BME280;4604;48.616;9.548;2023-02-02T03:00:24;97503.63;;;4.31;98.56
9139;BME280;4604;48.616;9.548;2023-02-02T03:03:04;97511.13;;;4.37;99.45
9139;BME280;4604;48.616;9.548;2023-02-02T03:05:42;97507.56;;;4.38;99.31
9139;BME280;4604;48.616;9.548;2023-02-02T03:08:17;97500.06;;;4.48;98.04
9139;BME280;4604;48.616;9.548;2023-02-02T03:10:46;97510.94;;;4.40;98.56
9139;BME280;4604;48.616;9.548;2023-02-02T03:13:13;97513.16;;;4.32;99.76
9139;BME280;4604;48.616;9.548;2023-02-02T03:15:41;97507.16;;;4.30;99.59
9139;BME280;4604;48.616;9.548;2023-02-02T03:18:10;97514.75;;;4.35;98.68
9139;BME280;4604;48.616;9.548;2023-02-02T03:20:38;97497.38;;;4.34;99.06
9139;BME280;4604;48.616;9.548;2023-02-02T03:23:04;97505.78;;;4.39;98.74
9139;BME280;4604;48.616;9.548;2023-02-02T03:25:31;97509.28;;;4.39;98.85
9139;BME280;4604;48.616;9.548;2023-02-02T03:27:58;97516.09;;;4.42;98.37
9139;BME280;4604;48.616;9.548;2023-02-02T03:30:25;97506.97;;;4.49;97.94
9139;BME280;4604;48.616;9.548;2023-02-02T03:32:51;97498.97;;;4.52;97.22
9139;BME280;4604;48.616;9.548;2023-02-02T03:35:20;97492.66;;;4.40;98.00
9139;BME280;4604;48.616;9.548;2023-02-02T03:37:47;97504.97;;;4.38;98.53
9139;BME280;4604;48.616;9.548;2023-02-02T03:40:14;97514.56;;;4.38;99.16
9139;BME280;4604;48.616;9.548;2023-02-02T03:42:40;97512.47;;;4.44;98.34
9139;BME280;4604;48.616;9.548;2023-02-02T03:45:08;97527.63;;;4.38;98.74
9139;BME280;4604;48.616;9.548;2023-02-02T03:47:35;97521.31;;;4.42;99.14
9139;BME280;4604;48.616;9.548;2023-02-02T03:50:01;97521.06;;;4.46;99.05
9139;BME280;4604;48.616;9.548;2023-02-02T03:52:29;97532.44;;;4.45;99.04
9139;BME280;4604;48.616;9.548;2023-02-02T03:54:56;97521.13;;;4.45;99.07
9139;BME280;4604;48.616;9.548;2023-02-02T03:57:23;97512.28;;;4.47;98.64
9139;BME280;4604;48.616;9.548;2023-02-02T03:59:49;97535.56;;;4.52;98.42
9139;BME280;4604;48.616;9.548;2023-02-02T04:02:16;97514.97;;;4.46;98.66
9139;BME280;4604;48.616;9.548;2023-02-02T04:04:43;97539.50;;;4.43;98.95
9139;BME280;4604;48.616;9.548;2023-02-02T04:07:09;97533.81;;;4.37;99.54
9139;BME280;4604;48.616;9.548;2023-02-02T04:09:38;97537.22;;;4.53;98.00
9139;BME280;4604;48.616;9.548;2023-02-02T04:12:05;97533.13;;;4.49;98.48
9139;BME280;4604;48.616;9.548;2023-02-02T04:14:31;97547.09;;;4.48;97.99
9139;BME280;4604;48.616;9.548;2023-02-02T04:16:58;97552.31;;;4.48;97.95
9139;BME280;4604;48.616;9.548;2023-02-02T04:19:24;97550.47;;;4.50;98.01
9139;BME280;4604;48.616;9.548;2023-02-02T04:21:52;97544.16;;;4.54;98.35
9139;BME280;4604;48.616;9.548;2023-02-02T04:24:18;97537.97;;;4.55;97.91
9139;BME280;4604;48.616;9.548;2023-02-02T04:26:46;97534.78;;;4.50;97.79
9139;BME280;4604;48.616;9.548;2023-02-02T04:29:13;97542.72;;;4.48;98.82
9139;BME280;4604;48.616;9.548;2023-02-02T04:31:40;97548.44;;;4.55;97.92
9139;BME280;4604;48.616;9.548;2023-02-02T04:34:06;97541.63;;;4.53;98.08
9139;BME280;4604;48.616;9.548;2023-02-02T04:36:33;97568.59;;;4.53;98.72
9139;BME280;4604;48.616;9.548;2023-02-02T04:39:00;97550.72;;;4.45;99.06
9139;BME280;4604;48.616;9.548;2023-02-02T04:41:26;97554.94;;;4.48;98.77
9139;BME280;4604;48.616;9.548;2023-02-02T04:43:55;97550.84;;;4.44;99.43
9139;BME280;4604;48.616;9.548;2023-02-02T04:46:21;97548.09;;;4.61;97.74
9139;BME280;4604;48.616;9.548;2023-02-02T04:48:48;97558.56;;;4.45;99.12
9139;BME280;4604;48.616;9.548;2023-02-02T04:51:15;97583.03;;;4.44;99.31
9139;BME280;4604;48.616;9.548;2023-02-02T04:53:43;97557.16;;;4.40;99.88
9139;BME280;4604;48.616;9.548;2023-02-02T04:56:13;97568.00;;;4.48;100.00
9139;BME280;4604;48.616;9.548;2023-02-02T04:58:40;97569.34;;;4.55;98.93
9139;BME280;4604;48.616;9.548;2023-02-02T05:01:09;97567.94;;;4.49;99.32
9139;BME280;4604;48.616;9.548;2023-02-02T05:03:36;97600.38;;;4.45;100.00
9139;BME280;4604;48.616;9.548;2023-02-02T05:06:04;97568.38;;;4.42;100.00
9139;BME280;4604;48.616;9.548;2023-02-02T05:08:31;97569.13;;;4.44;100.00
9139;BME280;4604;48.616;9.548;2023-02-02T05:10:58;97591.47;;;4.49;100.00
9139;BME280;4604;48.616;9.548;2023-02-02T05:13:25;97570.03;;;4.59;99.12
9139;BME280;4604;48.616;9.548;2023-02-02T05:15:52;97567.00;;;4.50;99.48
9139;BME280;4604;48.616;9.548;2023-02-02T05:18:20;97570.28;;;4.54;99.96
9139;BME280;4604;48.616;9.548;2023-02-02T05:20:49;97572.91;;;4.54;99.68
9139;BME280;4604;48.616;9.548;2023-02-02T05:23:16;97590.75;;;4.46;100.00
9139;BME280;4604;48.616;9.548;2023-02-02T05:25:42;97598.22;;;4.54;99.66
9139;BME280;4604;48.616;9.548;2023-02-02T05:28:09;97619.97;;;4.54;99.73
9139;BME280;4604;48.616;9.548;2023-02-02T05:30:38;97586.13;;;4.51;99.90
9139;BME280;4604;48.616;9.548;2023-02-02T05:33:04;97600.81;;;4.54;99.69
9139;BME280;4604;48.616;9.548;2023-02-02T05:35:32;97604.69;;;4.46;100.00
9139;BME280;4604;48.616;9.548;2023-02-02T05:37:59;97601.47;;;4.57;100.00
9139;BME280;4604;48.616;9.548;2023-02-02T05:40:26;97603.34;;;4.55;99.61
9139;BME280;4604;48.616;9.548;2023-02-02T05:42:53;97606.19;;;4.50;100.00
9139;BME280;4604;48.616;9.548;2023-02-02T05:45:19;97601.97;;;4.48;100.00
9139;BME280;4604;48.616;9.548;2023-02-02T05:47:46;97599.28;;;4.49;100.00
9139;BME280;4604;48.616;9.548;2023-02-02T05:50:13;97598.53;;;4.47;100.00
9139;BME280;4604;48.616;9.548;2023-02-02T05:52:41;97599.38;;;4.48;100.00
9139;BME280;4604;48.616;9.548;2023-02-02T05:55:09;97600.97;;;4.50;100.00
9139;BME280;4604;48.616;9.548;2023-02-02T05:57:35;97600.81;;;4.54;100.00
9139;BME280;4604;48.616;9.548;2023-02-02T06:00:03;97603.69;;;4.49;100.00
9139;BME280;4604;48.616;9.548;2023-02-02T06:02:30;97602.31;;;4.58;100.00
9139;BME280;4604;48.616;9.548;2023-02-02T06:04:57;97613.97;;;4.52;100.00
9139;BME280;4604;48.616;9.548;2023-02-02T06:07:23;97609.00;;;4.47;100.00
9139;BME280;4604;48.616;9.548;2023-02-02T06:09:51;97609.22;;;4.43;100.00
9139;BME280;4604;48.616;9.548;2023-02-02T06:12:18;97613.97;;;4.52;100.00
9139;BME280;4604;48.616;9.548;2023-02-02T06:14:44;97614.28;;;4.46;100.00
9139;BME280;4604;48.616;9.548;2023-02-02T06:17:11;97620.22;;;4.49;100.00
9139;BME280;4604;48.616;9.548;2023-02-02T06:19:38;97621.22;;;4.47;100.00
9139;BME280;4604;48.616;9.548;2023-02-02T06:22:04;97608.56;;;4.39;100.00
9139;BME280;4604;48.616;9.548;2023-02-02T06:24:31;97621.28;;;4.45;100.00
9139;BME280;4604;48.616;9.548;2023-02-02T06:26:59;97626.28;;;4.50;100.00
9139;BME280;4604;48.616;9.548;2023-02-02T06:29:26;97632.25;;;4.52;100.00
9139;BME280;4604;48.616;9.548;2023-02-02T06:31:52;97639.16;;;4.53;100.00
9139;BME280;4604;48.616;9.548;2023-02-02T06:34:19;97631.50;;;4.50;100.00
9139;BME280;4604;48.616;9.548;2023-02-02T06:36:46;97638.75;;;4.45;100.00
9139;BME280;4604;48.616;9.548;2023-02-02T06:39:13;97645.84;;;4.59;100.00
9139;BME280;4604;48.616;9.548;2023-02-02T06:41:39;97641.00;;;4.51;100.00
9139;BME280;4604;48.616;9.548;2023-02-02T06:44:10;97644.31;;;4.55;100.00
9139;BME280;4604;48.616;9.548;2023-02-02T06:46:37;97641.78;;;4.53;100.00
9139;BME280;4604;48.616;9.548;2023-02-02T06:49:03;97645.66;;;4.46;100.00
9139;BME280;4604;48.616;9.548;2023-02-02T06:51:30;97638.69;;;4.46;100.00
9139;BME280;4604;48.616;9.548;2023-02-02T06:53:56;97659.06;;;4.40;100.00
9139;BME280;4604;48.616;9.548;2023-02-02T06:56:23;97649.38;;;4.42;100.00
9139;BME280;4604;48.616;9.548;2023-02-02T06:58:49;97643.81;;;4.32;100.00
9139;BME280;4604;48.616;9.548;2023-02-02T07:01:18;97652.31;;;4.36;100.00
9139;BME280;4604;48.616;9.548;2023-02-02T07:03:47;97651.56;;;4.49;100.00
9139;BME280;4604;48.616;9.548;2023-02-02T07:06:16;97651.91;;;4.59;100.00
9139;BME280;4604;48.616;9.548;2023-02-02T07:08:43;97652.81;;;4.42;100.00
9139;BME280;4604;48.616;9.548;2023-02-02T07:11:10;97660.66;;;4.42;100.00
9139;BME280;4604;48.616;9.548;2023-02-02T07:13:37;97646.00;;;4.40;100.00
9139;BME280;4604;48.616;9.548;2023-02-02T07:16:05;97643.56;;;4.37;100.00
9139;BME280;4604;48.616;9.548;2023-02-02T07:18:34;97656.97;;;4.46;100.00
9139;BME280;4604;48.616;9.548;2023-02-02T07:21:01;97640.34;;;4.47;100.00
9139;BME280;4604;48.616;9.548;2023-02-02T07:23:28;97649.19;;;4.45;100.00
9139;BME280;4604;48.616;9.548;2023-02-02T07:26:03;97660.84;;;4.55;100.00
9139;BME280;4604;48.616;9.548;2023-02-02T07:28:30;97652.31;;;4.67;100.00
9139;BME280;4604;48.616;9.548;2023-02-02T07:30:57;97653.25;;;4.50;100.00
9139;BME280;4604;48.616;9.548;2023-02-02T07:33:24;97656.97;;;4.46;100.00
9139;BME280;4604;48.616;9.548;2023-02-02T07:35:52;97668.09;;;4.34;100.00
9139;BME280;4604;48.616;9.548;2023-02-02T07:38:19;97677.72;;;4.49;100.00
9139;BME280;4604;48.616;9.548;2023-02-02T07:40:46;97669.69;;;4.37;100.00
9139;BME280;4604;48.616;9.548;2023-02-02T07:43:12;97679.97;;;4.40;100.00
9139;BME280;4604;48.616;9.548;2023-02-02T07:45:39;97679.03;;;4.41;100.00
9139;BME280;4604;48.616;9.548;2023-02-02T07:48:05;97676.41;;;4.41;100.00
9139;BME280;4604;48.616;9.548;2023-02-02T07:50:32;97667.16;;;4.35;100.00
9139;BME280;4604;48.616;9.548;2023-02-02T07:53:00;97670.59;;;4.36;100.00
9139;BME280;4604;48.616;9.548;2023-02-02T07:55:27;97688.13;;;4.34;100.00
9139;BME280;4604;48.616;9.548;2023-02-02T07:57:54;97674.66;;;4.41;100.00
9139;BME280;4604;48.616;9.548;2023-02-02T08:00:23;97692.34;;;4.36;100.00
9139;BME280;4604;48.616;9.548;2023-02-02T08:02:50;97686.81;;;4.42;100.00
9139;BME280;4604;48.616;9.548;2023-02-02T08:05:17;97687.97;;;4.37;100.00
9139;BME280;4604;48.616;9.548;2023-02-02T08:07:44;97678.19;;;4.40;100.00
9139;BME280;4604;48.616;9.548;2023-02-02T08:10:12;97666.56;;;4.46;100.00
9139;BME280;4604;48.616;9.548;2023-02-02T08:12:39;97669.53;;;4.40;100.00
9139;BME280;4604;48.616;9.548;2023-02-02T08:15:07;97645.66;;;4.62;100.00
9139;BME280;4604;48.616;9.548;2023-02-02T08:17:33;97655.59;;;4.55;100.00
9139;BME280;4604;48.616;9.548;2023-02-02T08:20:01;97658.41;;;4.52;100.00
9139;BME280;4604;48.616;9.548;2023-02-02T08:22:28;97640.78;;;4.71;100.00
9139;BME280;4604;48.616;9.548;2023-02-02T08:24:56;97650.16;;;4.76;100.00
9139;BME280;4604;48.616;9.548;2023-02-02T08:27:24;97637.16;;;4.74;100.00
9139;BME280;4604;48.616;9.548;2023-02-02T08:29:51;97647.75;;;4.87;100.00
9139;BME280;4604;48.616;9.548;2023-02-02T08:32:17;97645.72;;;4.92;100.00
9139;BME280;4604;48.616;9.548;2023-02-02T08:34:47;97656.19;;;4.92;100.00
9139;BME280;4604;48.616;9.548;2023-02-02T08:37:13;97661.41;;;5.08;100.00
9139;BME280;4604;48.616;9.548;2023-02-02T08:39:40;97678.34;;;5.17;100.00
9139;BME280;4604;48.616;9.548;2023-02-02T08:42:06;97654.91;;;4.99;100.00
9139;BME280;4604;48.616;9.548;2023-02-02T08:44:34;97665.97;;;5.04;100.00
9139;BME280;4604;48.616;9.548;2023-02-02T08:47:01;97684.63;;;4.98;100.00
9139;BME280;4604;48.616;9.548;2023-02-02T08:49:28;97696.09;;;4.96;100.00
9139;BME280;4604;48.616;9.548;2023-02-02T08:51:54;97697.13;;;4.93;100.00
9139;BME280;4604;48.616;9.548;2023-02-02T08:54:21;97676.09;;;4.94;100.00
9139;BME280;4604;48.616;9.548;2023-02-02T08:56:48;97685.22;;;5.03;100.00
9139;BME280;4604;48.616;9.548;2023-02-02T08:59:15;97700.22;;;5.00;100.00
9139;BME280;4604;48.616;9.548;2023-02-02T09:01:43;97697.28;;;5.06;100.00
9139;BME280;4604;48.616;9.548;2023-02-02T09:04:13;97684.88;;;4.93;100.00
9139;BME280;4604;48.616;9.548;2023-02-02T09:06:41;97726.56;;;4.97;100.00
9139;BME280;4604;48.616;9.548;2023-02-02T09:09:11;97707.41;;;4.96;100.00
9139;BME280;4604;48.616;9.548;2023-02-02T09:11:39;97700.84;;;5.05;100.00
9139;BME280;4604;48.616;9.548;2023-02-02T09:14:06;97704.03;;;4.94;100.00
9139;BME280;4604;48.616;9.548;2023-02-02T09:16:34;97719.66;;;4.96;100.00
9139;BME280;4604;48.616;9.548;2023-02-02T09:19:03;97694.50;;;4.77;100.00
9139;BME280;4604;48.616;9.548;2023-02-02T09:21:30;97714.91;;;5.02;100.00
9139;BME280;4604;48.616;9.548;2023-02-02T09:24:04;97714.31;;;4.81;100.00
9139;BME280;4604;48.616;9.548;2023-02-02T09:26:31;97700.50;;;4.79;100.00
9139;BME280;4604;48.616;9.548;2023-02-02T09:28:59;97756.34;;;4.94;100.00
9139;BME280;4604;48.616;9.548;2023-02-02T09:31:27;97706.72;;;4.77;100.00
9139;BME280;4604;48.616;9.548;2023-02-02T09:33:54;97706.97;;;4.72;100.00
9139;BME280;4604;48.616;9.548;2023-02-02T09:36:23;97739.66;;;4.81;100.00
9139;BME280;4604;48.616;9.548;2023-02-02T09:38:51;97715.50;;;4.91;100.00
9139;BME280;4604;48.616;9.548;2023-02-02T09:41:53;97723.94;;;4.81;100.00
9139;BME280;4604;48.616;9.548;2023-02-02T09:44:48;97727.81;;;4.89;100.00
9139;BME280;4604;48.616;9.548;2023-02-02T09:47:22;97702.09;;;4.82;100.00
9139;BME280;4604;48.616;9.548;2023-02-02T09:49:59;97708.00;;;4.85;100.00
9139;BME280;4604;48.616;9.548;2023-02-02T09:52:32;97728.41;;;4.94;100.00
9139;BME280;4604;48.616;9.548;2023-02-02T09:55:05;97735.91;;;4.85;100.00
9139;BME280;4604;48.616;9.548;2023-02-02T09:57:38;97727.75;;;4.91;100.00
9139;BME280;4604;48.616;9.548;2023-02-02T10:00:23;97735.31;;;4.80;100.00
9139;BME280;4604;48.616;9.548;2023-02-02T10:02:55;97732.88;;;4.92;100.00
9139;BME280;4604;48.616;9.548;2023-02-02T10:05:28;97743.78;;;5.01;100.00
9139;BME280;4604;48.616;9.548;2023-02-02T10:08:00;97748.41;;;4.80;100.00
9139;BME280;4604;48.616;9.548;2023-02-02T10:10:33;97752.72;;;4.81;100.00
9139;BME280;4604;48.616;9.548;2023-02-02T10:13:04;97758.97;;;4.78;100.00
9139;BME280;4604;48.616;9.548;2023-02-02T10:15:38;97760.13;;;4.72;100.00
9139;BME280;4604;48.616;9.548;2023-02-02T10:18:13;97764.25;;;4.92;100.00
9139;BME280;4604;48.616;9.548;2023-02-02T10:20:46;97768.41;;;4.81;100.00
9139;BME280;4604;48.616;9.548;2023-02-02T10:23:22;97763.84;;;4.68;100.00
9139;BME280;4604;48.616;9.548;2023-02-02T10:25:55;97772.47;;;4.86;100.00
9139;BME280;4604;48.616;9.548;2023-02-02T10:28:33;97774.97;;;4.72;100.00
9139;BME280;4604;48.616;9.548;2023-02-02T10:31:10;97760.53;;;4.65;100.00
9139;BME280;4604;48.616;9.548;2023-02-02T10:33:44;97759.63;;;4.66;100.00
9139;BME280;4604;48.616;9.548;2023-02-02T10:36:19;97758.84;;;4.64;100.00
9139;BME280;4604;48.616;9.548;2023-02-02T10:38:58;97760.88;;;4.59;100.00
9139;BME280;4604;48.616;9.548;2023-02-02T10:41:31;97762.97;;;4.68;100.00
9139;BME280;4604;48.616;9.548;2023-02-02T10:44:15;97773.44;;;4.68;100.00
9139;BME280;4604;48.616;9.548;2023-02-02T10:46:44;97776.97;;;4.67;100.00
9139;BME280;4604;48.616;9.548;2023-02-02T10:49:25;97759.53;;;4.67;100.00
9139;BME280;4604;48.616;9.548;2023-02-02T10:51:55;97772.00;;;4.62;100.00
9139;BME280;4604;48.616;9.548;2023-02-02T10:54:41;97765.00;;;4.63;100.00
9139;BME280;4604;48.616;9.548;2023-02-02T10:57:13;97779.16;;;4.59;100.00
9139;BME280;4604;48.616;9.548;2023-02-02T11:00:01;97781.09;;;4.55;100.00
9139;BME280;4604;48.616;9.548;2023-02-02T11:02:30;97766.09;;;4.59;100.00
9139;BME280;4604;48.616;9.548;2023-02-02T11:04:57;97765.84;;;4.63;100.00
9139;BME280;4604;48.616;9.548;2023-02-02T11:07:41;97767.97;;;4.72;100.00
9139;BME280;4604;48.616;9.548;2023-02-02T11:10:09;97765.00;;;4.63;100.00
9139;BME280;4604;48.616;9.548;2023-02-02T11:12:39;97772.84;;;4.63;100.00
9139;BME280;4604;48.616;9.548;2023-02-02T11:15:23;97762.97;;;4.68;100.00
9139;BME280;4604;48.616;9.548;2023-02-02T11:17:50;97758.69;;;4.67;100.00
9139;BME280;4604;48.616;9.548;2023-02-02T11:20:22;97780.88;;;4.76;100.00
9139;BME280;4604;48.616;9.548;2023-02-02T11:22:58;97782.03;;;4.70;100.00
9139;BME280;4604;48.616;9.548;2023-02-02T11:25:29;97783.81;;;4.69;100.00
9139;BME280;4604;48.616;9.548;2023-02-02T11:27:57;97783.28;;;4.63;100.00
9139;BME280;4604;48.616;9.548;2023-02-02T11:30:29;97780.69;;;4.63;100.00
9139;BME280;4604;48.616;9.548;2023-02-02T11:32:57;97776.56;;;4.59;100.00
9139;BME280;4604;48.616;9.548;2023-02-02T11:35:25;97777.06;;;4.65;100.00
9139;BME280;4604;48.616;9.548;2023-02-02T11:37:59;97789.69;;;4.57;100.00
9139;BME280;4604;48.616;9.548;2023-02-02T11:40:31;97777.75;;;4.69;100.00
9139;BME280;4604;48.616;9.548;2023-02-02T11:43:00;97792.50;;;4.70;100.00
9139;BME280;4604;48.616;9.548;2023-02-02T11:45:32;97777.25;;;4.78;100.00
9139;BME280;4604;48.616;9.548;2023-02-02T11:48:02;97760.47;;;4.66;100.00
9139;BME280;4604;48.616;9.548;2023-02-02T11:50:30;97771.09;;;4.79;100.00
9139;BME280;4604;48.616;9.548;2023-02-02T11:52:57;97766.53;;;4.67;100.00
9139;BME280;4604;48.616;9.548;2023-02-02T11:55:26;97768.81;;;4.73;100.00
9139;BME280;4604;48.616;9.548;2023-02-02T11:58:21;97786.44;;;4.69;100.00
9139;BME280;4604;48.616;9.548;2023-02-02T12:00:57;97778.84;;;4.65;100.00
9139;BME280;4604;48.616;9.548;2023-02-02T12:03:28;97779.59;;;4.67;100.00
9139;BME280;4604;48.616;9.548;2023-02-02T12:05:56;97783.41;;;4.77;100.00
9139;BME280;4604;48.616;9.548;2023-02-02T12:08:23;97783.56;;;4.74;100.00
9139;BME280;4604;48.616;9.548;2023-02-02T12:10:55;97774.19;;;4.70;100.00
9139;BME280;4604;48.616;9.548;2023-02-02T12:13:38;97774.78;;;4.75;100.00
9139;BME280;4604;48.616;9.548;2023-02-02T12:16:34;97788.38;;;4.66;100.00
9139;BME280;4604;48.616;9.548;2023-02-02T12:19:19;97777.69;;;4.53;100.00
9139;BME280;4604;48.616;9.548;2023-02-02T12:21:54;97769.06;;;4.68;100.00
9139;BME280;4604;48.616;9.548;2023-02-02T12:24:28;97772.34;;;4.72;100.00
9139;BME280;4604;48.616;9.548;2023-02-02T12:27:08;97765.69;;;4.66;100.00
9139;BME280;4604;48.616;9.548;2023-02-02T12:29:50;97757.59;;;4.71;100.00
9139;BME280;4604;48.616;9.548;2023-02-02T12:32:40;97764.09;;;4.80;100.00
9139;BME280;4604;48.616;9.548;2023-02-02T12:35:21;97766.03;;;4.92;100.00
9139;BME280;4604;48.616;9.548;2023-02-02T12:37:58;97770.00;;;4.83;100.00
9139;BME280;4604;48.616;9.548;2023-02-02T12:40:43;97759.63;;;4.82;100.00
9139;BME280;4604;48.616;9.548;2023-02-02T12:43:20;97750.19;;;4.95;100.00
9139;BME280;4604;48.616;9.548;2023-02-02T12:46:08;97761.47;;;4.80;100.00
9139;BME280;4604;48.616;9.548;2023-02-02T12:51:52;97759.44;;;4.85;100.00
9139;BME280;4604;48.616;9.548;2023-02-02T12:54:32;97760.03;;;4.90;100.00
9139;BME280;4604;48.616;9.548;2023-02-02T12:57:10;97746.31;;;4.86;100.00
9139;BME280;4604;48.616;9.548;2023-02-02T13:00:01;97752.28;;;4.88;100.00
9139;BME280;4604;48.616;9.548;2023-02-02T13:02:35;97739.53;;;4.82;100.00
9139;BME280;4604;48.616;9.548;2023-02-02T13:05:22;97751.19;;;4.77;100.00
9139;BME280;4604;48.616;9.548;2023-02-02T13:07:54;97752.47;;;4.85;100.00
9139;BME280;4604;48.616;9.548;2023-02-02T13:10:25;97756.41;;;4.92;100.00
9139;BME280;4604;48.616;9.548;2023-02-02T13:12:56;97772.03;;;4.94;100.00
9139;BME280;4604;48.616;9.548;2023-02-02T13:15:30;97763.66;;;4.87;100.00
9139;BME280;4604;48.616;9.548;2023-02-02T13:18:00;97751.94;;;4.79;100.00
9139;BME280;4604;48.616;9.548;2023-02-02T13:20:38;97763.78;;;4.86;100.00
9139;BME280;4604;48.616;9.548;2023-02-02T13:23:09;97764.94;;;4.80;100.00
9139;BME280;4604;48.616;9.548;2023-02-02T13:25:43;97764.59;;;4.86;100.00
9139;BME280;4604;48.616;9.548;2023-02-02T13:28:18;97778.78;;;4.82;100.00
9139;BME280;4604;48.616;9.548;2023-02-02T13:30:49;97776.31;;;4.79;100.00
9139;BME280;4604;48.616;9.548;2023-02-02T13:33:22;97769.41;;;4.78;100.00
9139;BME280;4604;48.616;9.548;2023-02-02T13:35:52;97783.44;;;4.93;100.00
9139;BME280;4604;48.616;9.548;2023-02-02T13:38:22;97788.56;;;4.79;100.00
9139;BME280;4604;48.616;9.548;2023-02-02T13:40:50;97783.34;;;4.79;100.00
9139;BME280;4604;48.616;9.548;2023-02-02T13:43:36;97783.81;;;4.69;100.00
9139;BME280;4604;48.616;9.548;2023-02-02T13:46:14;97779.53;;;4.68;100.00
9139;BME280;4604;48.616;9.548;2023-02-02T13:48:52;97786.66;;;4.65;100.00
9139;BME280;4604;48.616;9.548;2023-02-02T13:51:53;97815.97;;;4.71;100.00
9139;BME280;4604;48.616;9.548;2023-02-02T13:54:59;97819.88;;;4.63;100.00